createdAt,value
2023-01-07T00:01:20.593Z,12.15
2023-01-07T00:02:22.445Z,12.63
2023-01-07T00:03:24.227Z,12.88
2023-01-07T00:04:26.041Z,13.09
2023-01-07T00:05:27.997Z,13.27
2023-01-07T00:06:35.939Z,13.22
2023-01-07T00:07:37.795Z,12.77
2023-01-07T00:08:42.351Z,12.21
2023-01-07T00:09:44.034Z,11.62
2023-01-07T00:10:45.771Z,11.10
2023-01-07T00:11:47.811Z,10.78
2023-01-07T00:12:49.622Z,10.92
2023-01-07T00:13:53.781Z,11.32
2023-01-07T00:14:55.650Z,11.80
2023-01-07T00:15:59.160Z,12.22
2023-01-07T00:17:00.935Z,12.59
2023-01-07T00:18:02.842Z,12.86
2023-01-07T00:19:07.211Z,13.08
2023-01-07T00:20:09.643Z,13.26
2023-01-07T00:21:14.594Z,13.10
2023-01-07T00:22:16.316Z,12.59
2023-01-07T00:23:18.260Z,12.01
2023-01-07T00:24:20.042Z,11.45
2023-01-07T00:25:21.883Z,10.95
2023-01-07T00:26:26.182Z,10.79
2023-01-07T00:27:28.217Z,11.07
2023-01-07T00:28:30.820Z,11.53
2023-01-07T00:29:32.658Z,11.98
2023-01-07T00:30:34.512Z,12.37
2023-01-07T00:31:39.430Z,12.69
2023-01-07T00:33:22.533Z,12.97
2023-01-07T00:34:24.554Z,13.30
2023-01-07T00:35:26.569Z,13.19
2023-01-07T00:36:32.310Z,12.74
2023-01-07T00:37:52.658Z,12.13
2023-01-07T00:38:56.604Z,11.42
2023-01-07T00:39:58.514Z,10.95
2023-01-07T00:41:01.174Z,10.86
2023-01-07T00:42:59.050Z,11.18
2023-01-07T00:44:01.574Z,12.05
2023-01-07T00:45:03.784Z,12.44
2023-01-07T00:46:06.018Z,12.79
2023-01-07T00:47:07.779Z,13.07
2023-01-07T00:48:10.068Z,13.30
2023-01-07T00:49:11.898Z,13.44
2023-01-07T00:50:13.979Z,13.24
2023-01-07T00:51:17.448Z,12.75
2023-01-07T00:52:19.293Z,12.16
2023-01-07T00:53:22.078Z,11.63
2023-01-07T00:54:24.360Z,11.14
2023-01-07T00:55:27.751Z,10.99
2023-01-07T00:56:29.795Z,11.29
2023-01-07T00:57:31.891Z,11.77
2023-01-07T00:58:34.182Z,12.21
2023-01-07T00:59:36.049Z,12.59
2023-01-07T01:00:37.910Z,12.89
2023-01-07T01:01:40.088Z,13.13
2023-01-07T01:02:43.281Z,13.35
2023-01-07T01:03:45.291Z,13.45
2023-01-07T01:04:47.243Z,13.17
2023-01-07T01:05:49.820Z,12.64
2023-01-07T01:06:51.736Z,12.05
2023-01-07T01:07:53.464Z,11.51
2023-01-07T01:08:55.286Z,11.04
2023-01-07T01:09:57.152Z,10.93
2023-01-07T01:11:06.832Z,11.23
2023-01-07T01:12:08.793Z,11.74
2023-01-07T01:13:17.954Z,12.19
2023-01-07T01:14:20.107Z,12.62
2023-01-07T01:15:21.982Z,12.94
2023-01-07T01:16:23.943Z,13.21
2023-01-07T01:17:25.990Z,13.42
2023-01-07T01:18:28.115Z,13.33
2023-01-07T01:19:29.949Z,12.92
2023-01-07T01:20:31.740Z,12.38
2023-01-07T01:21:33.675Z,11.86
2023-01-07T01:22:35.607Z,11.37
2023-01-07T01:23:38.279Z,11.04
2023-01-07T01:24:40.012Z,11.19
2023-01-07T01:25:42.975Z,11.67
2023-01-07T01:26:45.439Z,12.19
2023-01-07T01:27:47.624Z,12.65
2023-01-07T01:28:49.469Z,13.02
2023-01-07T01:29:52.342Z,13.33
2023-01-07T01:30:57.265Z,13.56
2023-01-07T01:32:01.149Z,13.47
2023-01-07T01:33:03.704Z,13.04
2023-01-07T01:34:06.128Z,12.50
2023-01-07T01:35:09.455Z,11.95
2023-01-07T01:36:13.196Z,11.48
2023-01-07T01:37:15.218Z,11.09
2023-01-07T01:38:17.483Z,11.11
2023-01-07T01:39:20.696Z,11.48
2023-01-07T01:40:22.692Z,11.98
2023-01-07T01:41:24.744Z,12.43
2023-01-07T01:42:27.256Z,12.83
2023-01-07T01:43:36.235Z,13.13
2023-01-07T01:44:43.756Z,13.40
2023-01-07T01:45:48.244Z,13.41
2023-01-07T01:46:50.438Z,13.02
2023-01-07T01:48:09.692Z,12.49
2023-01-07T01:49:27.788Z,11.79
2023-01-07T01:50:44.152Z,11.20
2023-01-07T01:51:57.094Z,10.92
2023-01-07T01:53:10.788Z,11.25
2023-01-07T01:54:19.683Z,11.85
2023-01-07T01:55:35.611Z,12.36
2023-01-07T01:56:45.672Z,12.83
2023-01-07T01:57:51.597Z,13.18
2023-01-07T01:59:05.344Z,13.40
2023-01-07T02:00:10.049Z,13.18
2023-01-07T02:01:15.241Z,12.66
2023-01-07T02:02:24.719Z,12.12
2023-01-07T02:03:31.336Z,11.56
2023-01-07T02:04:34.890Z,11.07
2023-01-07T02:05:41.129Z,10.84
2023-01-07T02:06:52.588Z,11.10
2023-01-07T02:07:54.463Z,11.66
2023-01-07T02:08:56.681Z,12.17
2023-01-07T02:10:17.197Z,12.63
2023-01-07T02:11:40.688Z,13.10
2023-01-07T02:13:35.577Z,13.35
2023-01-07T02:14:59.192Z,12.66
2023-01-07T02:16:01.096Z,11.97
2023-01-07T02:17:33.790Z,11.51
2023-01-07T02:18:53.895Z,10.89
2023-01-07T02:20:42.554Z,10.90
2023-01-07T02:22:22.568Z,11.72
2023-01-07T02:23:30.601Z,12.50
2023-01-07T02:25:30.292Z,12.91
2023-01-07T02:26:53.755Z,13.32
2023-01-07T02:28:34.533Z,12.88
2023-01-07T02:30:03.072Z,12.04
2023-01-07T02:31:21.073Z,11.34
2023-01-07T02:32:45.511Z,10.84
2023-01-07T02:33:51.769Z,10.80
2023-01-07T02:35:12.714Z,11.26
2023-01-07T02:36:24.592Z,11.96
2023-01-07T02:37:50.962Z,12.52
2023-01-07T02:39:26.686Z,13.05
2023-01-07T02:41:07.446Z,13.10
2023-01-07T02:42:35.600Z,12.38
2023-01-07T02:43:37.536Z,11.67
2023-01-07T02:45:06.197Z,11.23
2023-01-07T02:46:16.617Z,10.68
2023-01-07T02:47:36.763Z,10.45
2023-01-07T02:48:39.664Z,10.82
2023-01-07T02:49:41.523Z,11.35
2023-01-07T02:50:43.423Z,11.86
2023-01-07T02:51:47.332Z,12.33
2023-01-07T02:52:49.384Z,12.70
2023-01-07T02:53:51.783Z,12.88
2023-01-07T02:55:16.960Z,12.64
2023-01-07T02:56:52.316Z,12.00
2023-01-07T02:58:39.343Z,11.24
2023-01-07T03:00:27.402Z,10.54
2023-01-07T03:02:15.250Z,10.10
2023-01-07T03:04:06.524Z,10.73
2023-01-07T03:05:40.057Z,11.67
2023-01-07T03:07:03.641Z,12.29
2023-01-07T03:08:20.736Z,12.63
2023-01-07T03:09:55.622Z,12.36
2023-01-07T03:11:04.500Z,11.59
2023-01-07T03:12:30.813Z,11.02
2023-01-07T03:13:51.247Z,10.41
2023-01-07T03:15:29.258Z,10.02
2023-01-07T03:16:47.612Z,10.44
2023-01-07T03:18:03.106Z,11.11
2023-01-07T03:19:17.705Z,11.72
2023-01-07T03:20:24.258Z,12.22
2023-01-07T03:21:31.670Z,12.56
2023-01-07T03:22:39.848Z,12.56
2023-01-07T03:23:49.702Z,12.12
2023-01-07T03:24:56.448Z,11.54
2023-01-07T03:26:04.953Z,11.00
2023-01-07T03:27:09.860Z,10.51
2023-01-07T03:28:17.842Z,10.14
2023-01-07T03:29:21.140Z,10.23
2023-01-07T03:30:26.127Z,10.68
2023-01-07T03:31:31.306Z,11.24
2023-01-07T03:32:42.722Z,11.74
2023-01-07T03:33:59.955Z,12.21
2023-01-07T03:35:03.087Z,12.63
2023-01-07T03:36:08.169Z,12.79
2023-01-07T03:37:15.283Z,12.51
2023-01-07T03:38:22.422Z,11.99
2023-01-07T03:39:29.648Z,11.44
2023-01-07T03:40:32.382Z,10.94
2023-01-07T03:41:53.625Z,10.52
2023-01-07T03:42:55.423Z,10.29
2023-01-07T03:43:59.168Z,10.61
2023-01-07T03:45:01.336Z,11.13
2023-01-07T03:46:05.193Z,11.68
2023-01-07T03:47:09.901Z,12.14
2023-01-07T03:48:12.001Z,12.55
2023-01-07T03:49:13.898Z,12.83
2023-01-07T03:50:18.039Z,12.73
2023-01-07T03:51:20.060Z,12.30
2023-01-07T03:52:21.904Z,11.81
2023-01-07T03:53:23.713Z,11.30
2023-01-07T03:54:25.938Z,10.85
2023-01-07T03:55:27.844Z,10.46
2023-01-07T03:56:31.412Z,10.25
2023-01-07T03:57:33.861Z,10.48
2023-01-07T03:58:37.203Z,10.97
2023-01-07T03:59:39.734Z,11.49
2023-01-07T04:00:41.634Z,11.96
2023-01-07T04:01:49.866Z,12.40
2023-01-07T04:02:52.006Z,12.73
2023-01-07T04:04:03.126Z,12.84
2023-01-07T04:05:05.835Z,12.52
2023-01-07T04:06:07.654Z,12.04
2023-01-07T04:07:09.469Z,11.53
2023-01-07T04:08:11.396Z,11.05
2023-01-07T04:09:15.255Z,10.63
2023-01-07T04:10:17.866Z,10.33
2023-01-07T04:11:19.771Z,10.47
2023-01-07T04:12:22.393Z,10.93
2023-01-07T04:13:25.106Z,11.47
2023-01-07T04:14:27.025Z,11.96
2023-01-07T04:15:29.208Z,12.36
2023-01-07T04:16:31.661Z,12.71
2023-01-07T04:17:34.135Z,12.98
2023-01-07T04:18:35.993Z,12.90
2023-01-07T04:19:39.722Z,12.47
2023-01-07T04:20:45.702Z,11.90
2023-01-07T04:21:47.529Z,11.31
2023-01-07T04:22:49.454Z,10.83
2023-01-07T04:23:51.401Z,10.47
2023-01-07T04:24:53.566Z,10.53
2023-01-07T04:25:55.676Z,10.94
2023-01-07T04:26:58.759Z,11.45
2023-01-07T04:28:00.822Z,11.91
2023-01-07T04:29:02.765Z,12.33
2023-01-07T04:30:05.729Z,12.66
2023-01-07T04:31:09.069Z,12.95
2023-01-07T04:32:11.514Z,13.09
2023-01-07T04:33:13.384Z,12.86
2023-01-07T04:34:15.417Z,12.38
2023-01-07T04:35:17.703Z,11.83
2023-01-07T04:36:19.796Z,11.34
2023-01-07T04:37:22.809Z,10.88
2023-01-07T04:38:25.252Z,10.62
2023-01-07T04:39:29.403Z,10.83
2023-01-07T04:40:32.361Z,11.29
2023-01-07T04:41:35.169Z,11.81
2023-01-07T04:42:37.391Z,12.26
2023-01-07T04:43:39.984Z,12.65
2023-01-07T04:44:42.699Z,12.98
2023-01-07T04:45:44.534Z,13.23
2023-01-07T04:46:47.660Z,13.20
2023-01-07T04:47:50.438Z,12.80
2023-01-07T04:48:53.152Z,12.27
2023-01-07T04:49:55.824Z,11.77
2023-01-07T04:50:58.049Z,11.31
2023-01-07T04:52:00.328Z,10.92
2023-01-07T04:53:02.473Z,10.90
2023-01-07T04:54:04.753Z,11.27
2023-01-07T04:55:07.648Z,11.77
2023-01-07T04:56:09.526Z,12.22
2023-01-07T04:57:12.637Z,12.62
2023-01-07T04:58:14.632Z,12.95
2023-01-07T04:59:16.556Z,13.23
2023-01-07T05:00:19.175Z,13.36
2023-01-07T05:01:21.779Z,13.10
2023-01-07T05:02:23.808Z,12.59
2023-01-07T05:03:25.932Z,12.04
2023-01-07T05:04:27.931Z,11.53
2023-01-07T05:05:30.428Z,11.08
2023-01-07T05:06:32.743Z,10.87
2023-01-07T05:07:35.118Z,11.11
2023-01-07T05:08:37.589Z,11.56
2023-01-07T05:09:40.187Z,12.04
2023-01-07T05:10:42.505Z,12.48
2023-01-07T05:11:44.539Z,12.83
2023-01-07T05:12:47.435Z,13.13
2023-01-07T05:13:50.936Z,13.34
2023-01-07T05:14:53.316Z,13.21
2023-01-07T05:15:55.218Z,12.77
2023-01-07T05:16:58.590Z,12.24
2023-01-07T05:18:01.403Z,11.74
2023-01-07T05:19:03.682Z,11.28
2023-01-07T05:20:08.268Z,10.88
2023-01-07T05:21:11.311Z,10.79
2023-01-07T05:22:13.646Z,11.13
2023-01-07T05:23:15.706Z,11.63
2023-01-07T05:24:17.905Z,12.13
2023-01-07T05:25:20.091Z,12.56
2023-01-07T05:26:22.320Z,12.92
2023-01-07T05:27:24.416Z,13.19
2023-01-07T05:28:26.211Z,13.20
2023-01-07T05:29:28.272Z,12.85
2023-01-07T05:30:31.520Z,12.32
2023-01-07T05:31:33.664Z,11.80
2023-01-07T05:32:35.767Z,11.31
2023-01-07T05:33:37.767Z,10.87
2023-01-07T05:34:39.786Z,10.61
2023-01-07T05:35:41.778Z,10.81
2023-01-07T05:36:43.717Z,11.26
2023-01-07T05:37:46.197Z,11.74
2023-01-07T05:38:48.308Z,12.18
2023-01-07T05:39:50.411Z,12.54
2023-01-07T05:40:53.809Z,12.85
2023-01-07T05:41:57.858Z,13.05
2023-01-07T05:43:00.021Z,12.91
2023-01-07T05:44:02.171Z,12.46
2023-01-07T05:45:05.496Z,11.93
2023-01-07T05:46:07.619Z,11.41
2023-01-07T05:47:09.582Z,10.95
2023-01-07T05:48:12.666Z,10.58
2023-01-07T05:49:14.666Z,10.60
2023-01-07T05:50:16.950Z,11.00
2023-01-07T05:51:18.789Z,11.49
2023-01-07T05:52:20.710Z,11.97
2023-01-07T05:53:22.572Z,12.37
2023-01-07T05:54:24.510Z,12.70
2023-01-07T05:55:26.300Z,12.97
2023-01-07T05:56:28.148Z,13.04
2023-01-07T05:57:30.251Z,12.70
2023-01-07T05:58:32.012Z,12.17
2023-01-07T05:59:34.810Z,11.61
2023-01-07T06:00:37.718Z,11.08
2023-01-07T06:01:39.537Z,10.60
2023-01-07T06:02:41.348Z,10.46
2023-01-07T06:03:43.380Z,10.75
2023-01-07T06:04:45.289Z,11.23
2023-01-07T06:05:48.559Z,11.71
2023-01-07T06:06:50.388Z,12.15
2023-01-07T06:07:52.261Z,12.51
2023-01-07T06:08:54.262Z,12.81
2023-01-07T06:09:56.094Z,13.05
2023-01-07T06:10:57.874Z,13.04
2023-01-07T06:11:59.663Z,12.67
2023-01-07T06:13:02.353Z,12.13
2023-01-07T06:14:04.185Z,11.58
2023-01-07T06:15:09.953Z,11.10
2023-01-07T06:16:14.262Z,10.69
2023-01-07T06:17:16.188Z,10.72
2023-01-07T06:18:18.082Z,11.11
2023-01-07T06:19:20.000Z,11.60
2023-01-07T06:20:21.856Z,12.05
2023-01-07T06:21:23.736Z,12.45
2023-01-07T06:22:25.695Z,12.79
2023-01-07T06:23:28.056Z,13.07
2023-01-07T06:24:30.292Z,13.23
2023-01-07T06:25:32.504Z,13.03
2023-01-07T06:26:34.436Z,12.52
2023-01-07T06:27:36.621Z,11.96
2023-01-07T06:28:38.591Z,11.42
2023-01-07T06:29:40.572Z,10.95
2023-01-07T06:30:46.485Z,10.72
2023-01-07T06:31:48.463Z,10.98
2023-01-07T06:32:50.519Z,11.44
2023-01-07T06:33:52.485Z,11.91
2023-01-07T06:34:54.654Z,12.32
2023-01-07T06:35:56.934Z,12.66
2023-01-07T06:36:58.913Z,12.95
2023-01-07T06:38:03.615Z,13.20
2023-01-07T06:39:05.839Z,13.33
2023-01-07T06:40:09.336Z,13.05
2023-01-07T06:41:11.397Z,12.52
2023-01-07T06:42:13.915Z,11.97
2023-01-07T06:43:15.759Z,11.43
2023-01-07T06:44:17.830Z,10.96
2023-01-07T06:45:19.948Z,10.80
2023-01-07T06:46:22.020Z,11.09
2023-01-07T06:47:25.570Z,11.55
2023-01-07T06:48:27.974Z,12.03
2023-01-07T06:49:30.816Z,12.44
2023-01-07T06:50:32.872Z,12.78
2023-01-07T06:51:34.954Z,13.06
2023-01-07T06:52:37.206Z,13.28
2023-01-07T06:53:39.364Z,13.21
2023-01-07T06:54:41.233Z,12.78
2023-01-07T06:55:49.585Z,12.23
2023-01-07T06:56:51.591Z,11.64
2023-01-07T06:57:53.616Z,11.14
2023-01-07T06:58:55.865Z,10.80
2023-01-07T06:59:57.700Z,10.91
2023-01-07T07:01:07.932Z,11.31
2023-01-07T07:02:20.549Z,11.83
2023-01-07T07:03:22.721Z,12.33
2023-01-07T07:04:24.614Z,12.66
2023-01-07T07:05:28.440Z,12.94
2023-01-07T07:06:30.584Z,13.14
2023-01-07T07:07:33.158Z,13.03
2023-01-07T07:08:35.126Z,12.57
2023-01-07T07:09:36.853Z,12.00
2023-01-07T07:10:40.059Z,11.44
2023-01-07T07:11:41.956Z,10.91
2023-01-07T07:12:43.986Z,10.58
2023-01-07T07:13:46.357Z,10.70
2023-01-07T07:14:48.677Z,11.11
2023-01-07T07:15:50.742Z,11.58
2023-01-07T07:16:52.899Z,12.01
2023-01-07T07:17:55.298Z,12.36
2023-01-07T07:18:57.206Z,12.65
2023-01-07T07:19:59.056Z,12.90
2023-01-07T07:21:01.286Z,13.08
2023-01-07T07:22:04.763Z,12.92
2023-01-07T07:23:06.836Z,12.43
2023-01-07T07:24:08.784Z,11.88
2023-01-07T07:25:10.798Z,11.35
2023-01-07T07:26:12.712Z,10.85
2023-01-07T07:27:14.832Z,10.58
2023-01-07T07:28:17.506Z,10.78
2023-01-07T07:29:21.674Z,11.24
2023-01-07T07:30:46.385Z,11.74
2023-01-07T07:31:46.128Z,12.31
2023-01-07T07:32:47.924Z,12.65
2023-01-07T07:33:49.765Z,12.92
2023-01-07T07:34:51.645Z,13.15
2023-01-07T07:35:55.208Z,13.11
2023-01-07T07:36:57.367Z,12.69
2023-01-07T07:37:59.423Z,12.16
2023-01-07T07:39:01.361Z,11.63
2023-01-07T07:40:05.650Z,11.14
2023-01-07T07:41:07.599Z,10.81
2023-01-07T07:42:09.446Z,10.94
2023-01-07T07:43:13.291Z,11.35
2023-01-07T07:44:15.388Z,11.83
2023-01-07T07:45:19.791Z,12.24
2023-01-07T07:46:21.729Z,12.62
2023-01-07T07:47:24.337Z,12.93
2023-01-07T07:48:26.188Z,13.19
2023-01-07T07:49:28.269Z,13.31
2023-01-07T07:50:30.365Z,13.04
2023-01-07T07:51:32.957Z,12.53
2023-01-07T07:52:35.764Z,11.97
2023-01-07T07:53:37.635Z,11.45
2023-01-07T07:54:39.448Z,10.97
2023-01-07T07:55:41.249Z,10.87
2023-01-07T07:56:43.218Z,11.18
2023-01-07T07:57:45.021Z,11.64
2023-01-07T07:58:46.882Z,12.11
2023-01-07T07:59:48.755Z,12.51
2023-01-07T08:00:50.766Z,12.85
2023-01-07T08:01:52.866Z,13.15
2023-01-07T08:03:01.285Z,13.39
2023-01-07T08:04:03.196Z,13.45
2023-01-07T08:05:05.997Z,13.12
2023-01-07T08:06:07.867Z,12.60
2023-01-07T08:07:12.314Z,12.07
2023-01-07T08:08:15.341Z,11.56
2023-01-07T08:09:17.390Z,11.18
2023-01-07T08:10:21.318Z,11.21
2023-01-07T08:11:23.126Z,11.59
2023-01-07T08:12:25.079Z,12.04
2023-01-07T08:13:27.056Z,12.46
2023-01-07T08:14:28.914Z,12.82
2023-01-07T08:15:31.005Z,13.12
2023-01-07T08:16:33.047Z,13.37
2023-01-07T08:17:39.338Z,13.58
2023-01-07T08:18:41.379Z,13.54
2023-01-07T08:19:43.140Z,13.12
2023-01-07T08:20:45.018Z,12.55
2023-01-07T08:21:49.085Z,11.99
2023-01-07T08:22:51.011Z,11.47
2023-01-07T08:23:52.982Z,11.18
2023-01-07T08:24:54.820Z,11.35
2023-01-07T08:26:01.254Z,11.76
2023-01-07T08:27:03.204Z,12.24
2023-01-07T08:28:05.648Z,12.62
2023-01-07T08:29:07.560Z,12.95
2023-01-07T08:30:10.105Z,13.20
2023-01-07T08:31:12.373Z,13.42
2023-01-07T08:32:14.353Z,13.61
2023-01-07T08:33:16.282Z,13.65
2023-01-07T08:34:18.174Z,13.32
2023-01-07T08:35:19.961Z,12.79
2023-01-07T08:36:23.401Z,12.23
2023-01-07T08:37:25.481Z,11.70
2023-01-07T08:38:28.991Z,11.33
2023-01-07T08:39:31.020Z,11.40
2023-01-07T08:40:33.520Z,11.79
2023-01-07T08:41:35.317Z,12.24
2023-01-07T08:42:37.559Z,12.65
2023-01-07T08:43:39.525Z,13.00
2023-01-07T08:44:41.390Z,13.31
2023-01-07T08:45:48.809Z,13.58
2023-01-07T08:46:52.879Z,13.81
2023-01-07T08:47:57.991Z,13.77
2023-01-07T08:48:59.843Z,13.35
2023-01-07T08:50:01.893Z,12.83
2023-01-07T08:51:03.845Z,12.30
2023-01-07T08:52:06.342Z,11.81
2023-01-07T08:53:08.196Z,11.55
2023-01-07T08:54:09.973Z,11.74
2023-01-07T08:55:11.803Z,12.18
2023-01-07T08:56:13.598Z,12.67
2023-01-07T08:57:17.207Z,13.11
2023-01-07T08:58:19.085Z,13.50
2023-01-07T08:59:21.006Z,13.80
2023-01-07T09:00:24.002Z,14.08
2023-01-07T09:01:26.010Z,14.22
2023-01-07T09:02:28.377Z,13.97
2023-01-07T09:03:31.023Z,13.45
2023-01-07T09:04:32.938Z,12.88
2023-01-07T09:05:35.414Z,12.34
2023-01-07T09:06:37.642Z,11.86
2023-01-07T09:07:39.539Z,11.68
2023-01-07T09:08:41.750Z,11.93
2023-01-07T09:09:43.735Z,12.37
2023-01-07T09:10:45.549Z,12.85
2023-01-07T09:11:47.347Z,13.26
2023-01-07T09:12:50.193Z,13.62
2023-01-07T09:13:52.064Z,13.91
2023-01-07T09:14:54.159Z,14.15
2023-01-07T09:15:56.028Z,14.28
2023-01-07T09:16:58.074Z,14.04
2023-01-07T09:18:00.360Z,13.54
2023-01-07T09:19:02.285Z,12.99
2023-01-07T09:20:06.085Z,12.46
2023-01-07T09:21:07.898Z,11.95
2023-01-07T09:22:09.827Z,11.77
2023-01-07T09:23:12.034Z,12.01
2023-01-07T09:24:14.132Z,12.47
2023-01-07T09:25:16.562Z,12.91
2023-01-07T09:26:18.478Z,13.29
2023-01-07T09:27:20.305Z,13.60
2023-01-07T09:28:22.415Z,13.85
2023-01-07T09:29:24.501Z,14.06
2023-01-07T09:30:26.672Z,14.18
2023-01-07T09:31:28.788Z,13.98
2023-01-07T09:32:31.042Z,13.47
2023-01-07T09:33:33.544Z,12.88
2023-01-07T09:34:35.412Z,12.31
2023-01-07T09:35:37.568Z,11.82
2023-01-07T09:36:39.503Z,11.71
2023-01-07T09:37:41.660Z,12.01
2023-01-07T09:38:43.664Z,12.44
2023-01-07T09:39:45.736Z,12.86
2023-01-07T09:40:47.880Z,13.21
2023-01-07T09:42:17.172Z,13.49
2023-01-07T09:43:59.431Z,13.80
2023-01-07T09:45:20.339Z,14.05
2023-01-07T09:46:23.863Z,13.89
2023-01-07T09:47:29.639Z,13.38
2023-01-07T09:48:38.429Z,12.74
2023-01-07T09:49:44.358Z,12.11
2023-01-07T09:51:24.082Z,11.69
2023-01-07T09:52:34.167Z,11.96
2023-01-07T09:53:44.152Z,12.46
2023-01-07T09:54:52.290Z,12.96
2023-01-07T09:56:10.454Z,13.38
2023-01-07T09:57:17.904Z,13.77
2023-01-07T09:58:22.140Z,14.05
2023-01-07T09:59:24.248Z,14.27
2023-01-07T10:00:27.304Z,14.36
2023-01-07T10:01:44.281Z,14.08
2023-01-07T10:02:56.928Z,13.44
2023-01-07T10:04:24.522Z,12.81
2023-01-07T10:06:05.792Z,12.15
2023-01-07T10:07:25.092Z,12.15
2023-01-07T10:08:33.463Z,12.68
2023-01-07T10:09:53.978Z,13.17
2023-01-07T10:11:11.172Z,13.66
2023-01-07T10:12:29.793Z,14.04
2023-01-07T10:13:53.655Z,14.32
2023-01-07T10:15:17.463Z,14.30
2023-01-07T10:16:36.636Z,13.70
2023-01-07T10:17:52.895Z,13.00
2023-01-07T10:19:14.339Z,12.37
2023-01-07T10:20:37.577Z,12.00
2023-01-07T10:21:56.098Z,12.34
2023-01-07T10:23:08.093Z,12.89
2023-01-07T10:24:21.913Z,13.33
2023-01-07T10:25:32.998Z,13.69
2023-01-07T10:26:42.990Z,13.96
2023-01-07T10:27:47.969Z,14.17
2023-01-07T10:29:19.167Z,14.19
2023-01-07T10:30:30.137Z,13.59
2023-01-07T10:31:33.558Z,12.91
2023-01-07T10:32:36.882Z,12.34
2023-01-07T10:33:40.824Z,11.86
2023-01-07T10:34:48.286Z,11.77
2023-01-07T10:36:15.843Z,12.11
2023-01-07T10:37:40.440Z,12.75
2023-01-07T10:39:01.514Z,13.29
2023-01-07T10:40:12.632Z,13.69
2023-01-07T10:41:48.928Z,13.98
2023-01-07T10:43:00.471Z,14.27
2023-01-07T10:44:18.505Z,14.19
2023-01-07T10:45:49.937Z,13.62
2023-01-07T10:47:11.566Z,12.85
2023-01-07T10:48:29.694Z,12.21
2023-01-07T10:49:59.536Z,11.98
2023-01-07T10:51:13.701Z,12.42
2023-01-07T10:52:53.936Z,12.95
2023-01-07T10:54:20.017Z,13.60
2023-01-07T10:55:31.432Z,14.05
2023-01-07T10:56:52.210Z,14.33
2023-01-07T10:57:54.149Z,14.41
2023-01-07T10:58:56.502Z,14.04
2023-01-07T11:00:04.465Z,13.51
2023-01-07T11:01:08.681Z,12.91
2023-01-07T11:02:18.414Z,12.42
2023-01-07T11:03:24.188Z,12.05
2023-01-07T11:04:27.136Z,12.20
2023-01-07T11:05:38.725Z,12.66
2023-01-07T11:07:04.598Z,13.24
2023-01-07T11:08:20.932Z,13.81
2023-01-07T11:09:30.653Z,14.21
2023-01-07T11:10:37.613Z,14.45
2023-01-07T11:11:42.028Z,14.39
2023-01-07T11:12:53.303Z,13.93
2023-01-07T11:14:02.390Z,13.28
2023-01-07T11:15:36.243Z,12.67
2023-01-07T11:16:53.283Z,12.02
2023-01-07T11:18:21.287Z,12.14
2023-01-07T11:19:43.307Z,12.77
2023-01-07T11:20:52.526Z,13.37
2023-01-07T11:21:54.402Z,13.77
2023-01-07T11:22:56.370Z,14.06
2023-01-07T11:23:58.737Z,14.30
2023-01-07T11:25:15.511Z,14.51
2023-01-07T11:26:25.823Z,14.46
2023-01-07T11:27:34.277Z,13.96
2023-01-07T11:28:37.790Z,13.35
2023-01-07T11:29:56.004Z,12.79
2023-01-07T11:31:00.851Z,12.19
2023-01-07T11:32:05.652Z,12.10
2023-01-07T11:33:07.893Z,12.43
2023-01-07T11:34:40.536Z,12.89
2023-01-07T11:35:52.106Z,13.53
2023-01-07T11:36:54.690Z,13.95
2023-01-07T11:37:58.936Z,14.25
2023-01-07T11:39:17.955Z,14.50
2023-01-07T11:40:30.769Z,14.70
2023-01-07T11:41:33.040Z,14.42
2023-01-07T11:42:49.834Z,13.92
2023-01-07T11:43:54.445Z,13.26
2023-01-07T11:45:11.647Z,12.76
2023-01-07T11:46:19.588Z,12.37
2023-01-07T11:47:23.543Z,12.60
2023-01-07T11:48:33.542Z,13.06
2023-01-07T11:49:44.961Z,13.60
2023-01-07T11:51:17.232Z,14.09
2023-01-07T11:52:21.113Z,14.60
2023-01-07T11:53:52.899Z,14.87
2023-01-07T11:54:55.474Z,14.94
2023-01-07T11:55:59.310Z,14.55
2023-01-07T11:57:20.896Z,14.03
2023-01-07T11:58:28.114Z,13.38
2023-01-07T11:59:31.752Z,12.87
2023-01-07T12:00:33.889Z,12.57
2023-01-07T12:01:43.070Z,12.70
2023-01-07T12:02:45.241Z,13.17
2023-01-07T12:03:53.530Z,13.62
2023-01-07T12:05:16.840Z,14.06
2023-01-07T12:06:33.203Z,14.46
2023-01-07T12:07:35.555Z,14.74
2023-01-07T12:08:42.712Z,14.85
2023-01-07T12:09:46.447Z,14.57
2023-01-07T12:10:56.713Z,14.03
2023-01-07T12:12:32.134Z,13.40
2023-01-07T12:13:36.642Z,12.62
2023-01-07T12:14:41.493Z,12.29
2023-01-07T12:15:57.726Z,12.44
2023-01-07T12:17:16.277Z,12.96
2023-01-07T12:18:24.990Z,13.54
2023-01-07T12:19:59.156Z,13.96
2023-01-07T12:21:32.806Z,14.40
2023-01-07T12:22:58.457Z,14.74
2023-01-07T12:24:28.411Z,14.61
2023-01-07T12:25:44.539Z,13.87
2023-01-07T12:27:02.552Z,13.20
2023-01-07T12:28:21.870Z,12.57
2023-01-07T12:29:29.785Z,12.26
2023-01-07T12:30:54.813Z,12.52
2023-01-07T12:32:30.009Z,13.12
2023-01-07T12:34:00.844Z,13.71
2023-01-07T12:35:18.530Z,14.18
2023-01-07T12:36:45.776Z,14.48
2023-01-07T12:38:02.307Z,14.72
2023-01-07T12:39:31.006Z,14.49
2023-01-07T12:40:50.996Z,13.79
2023-01-07T12:42:08.005Z,13.15
2023-01-07T12:43:18.769Z,12.61
2023-01-07T12:44:22.813Z,12.55
2023-01-07T12:45:41.000Z,12.93
2023-01-07T12:47:29.943Z,13.49
2023-01-07T12:48:41.301Z,14.18
2023-01-07T12:49:59.149Z,14.56
2023-01-07T12:51:12.452Z,14.88
2023-01-07T12:52:44.236Z,15.05
2023-01-07T12:53:57.817Z,14.59
2023-01-07T12:55:13.411Z,13.97
2023-01-07T12:56:27.453Z,13.36
2023-01-07T12:57:35.626Z,12.88
2023-01-07T12:58:46.105Z,12.82
2023-01-07T12:59:56.126Z,13.22
2023-01-07T13:01:17.153Z,13.78
2023-01-07T13:02:45.297Z,14.40
2023-01-07T13:04:02.833Z,14.99
2023-01-07T13:05:10.394Z,15.42
2023-01-07T13:06:24.744Z,15.66
2023-01-07T13:08:04.116Z,15.44
2023-01-07T13:09:20.856Z,14.67
2023-01-07T13:10:28.554Z,14.07
2023-01-07T13:12:07.669Z,13.59
2023-01-07T13:13:32.525Z,13.03
2023-01-07T13:14:41.953Z,13.29
2023-01-07T13:15:43.877Z,13.80
2023-01-07T13:16:45.860Z,14.29
2023-01-07T13:17:54.143Z,14.69
2023-01-07T13:18:56.169Z,15.06
2023-01-07T13:19:58.188Z,15.33
2023-01-07T13:21:14.174Z,15.32
2023-01-07T13:22:38.720Z,14.84
2023-01-07T13:23:43.701Z,14.10
2023-01-07T13:25:12.346Z,13.56
2023-01-07T13:26:26.991Z,12.93
2023-01-07T13:27:45.290Z,12.72
2023-01-07T13:29:10.759Z,13.13
2023-01-07T13:30:16.951Z,13.77
2023-01-07T13:31:30.421Z,14.24
2023-01-07T13:33:06.110Z,14.66
2023-01-07T13:34:47.531Z,15.05
2023-01-07T13:35:58.208Z,14.94
2023-01-07T13:37:27.067Z,14.40
2023-01-07T13:38:42.975Z,13.66
2023-01-07T13:40:17.922Z,13.10
2023-01-07T13:41:56.433Z,12.78
2023-01-07T13:43:17.048Z,13.36
2023-01-07T13:44:47.995Z,13.99
2023-01-07T13:46:05.642Z,14.59
2023-01-07T13:47:13.387Z,15.00
2023-01-07T13:48:26.056Z,15.27
2023-01-07T13:49:32.492Z,15.28
2023-01-07T13:50:42.024Z,14.86
2023-01-07T13:51:44.086Z,14.29
2023-01-07T13:52:56.322Z,13.78
2023-01-07T13:53:58.225Z,13.27
2023-01-07T13:55:03.998Z,13.01
2023-01-07T13:56:25.997Z,13.22
2023-01-07T13:57:30.518Z,13.84
2023-01-07T13:58:32.572Z,14.34
2023-01-07T13:59:49.779Z,14.75
2023-01-07T14:01:04.884Z,15.17
2023-01-07T14:02:22.518Z,15.45
2023-01-07T14:03:27.151Z,15.25
2023-01-07T14:04:49.608Z,14.75
2023-01-07T14:06:20.823Z,14.04
2023-01-07T14:07:24.016Z,13.33
2023-01-07T14:08:29.014Z,12.98
2023-01-07T14:09:36.266Z,13.07
2023-01-07T14:10:39.222Z,13.53
2023-01-07T14:11:58.254Z,14.03
2023-01-07T14:13:25.935Z,14.59
2023-01-07T14:15:15.767Z,15.07
2023-01-07T14:16:41.378Z,15.33
2023-01-07T14:17:54.439Z,14.85
2023-01-07T14:19:34.460Z,14.20
2023-01-07T14:20:50.985Z,13.35
2023-01-07T14:21:59.546Z,12.82
2023-01-07T14:23:04.656Z,12.77
2023-01-07T14:24:21.697Z,13.16
2023-01-07T14:26:05.395Z,13.75
2023-01-07T14:27:38.813Z,14.48
2023-01-07T14:29:01.903Z,14.97
2023-01-07T14:30:38.812Z,15.24
2023-01-07T14:31:41.213Z,14.87
2023-01-07T14:32:44.831Z,14.35
2023-01-07T14:33:54.331Z,13.81
2023-01-07T14:35:01.970Z,13.28
2023-01-07T14:36:10.295Z,12.86
2023-01-07T14:37:16.937Z,12.83
2023-01-07T14:38:39.646Z,13.22
2023-01-07T14:39:44.066Z,13.84
2023-01-07T14:40:45.826Z,14.29
2023-01-07T14:42:16.792Z,14.64
2023-01-07T14:43:40.638Z,15.05